Time;durP1;ratioP1;P1;durP2;ratioP2;P2;SDS_P1;SDS_P2;PMS_P1;PMS_P2;Temp;Humidity;BMP_temperature;BMP_pressure;BME280_temperature;BME280_humidity;BME280_pressure;Samples;Min_cycle;Max_cycle;Signal;HPM_P1;HPM_P2
2023/01/29 00:01:11;;;;;;;13.40;9.43;;;;;;;12.52;49.33;100261.81;5033726;28;20025;-81
2023/01/29 00:03:37;;;;;;;12.60;8.73;;;;;;;12.49;49.58;100257.50;5033885;28;20029;-80
2023/01/29 00:06:07;;;;;;;13.23;8.75;;;;;;;12.47;49.62;100253.16;5043763;28;20024;-80
2023/01/29 00:08:34;;;;;;;12.60;8.68;;;;;;;12.52;49.86;100261.81;5053557;28;20025;-80
2023/01/29 00:11:09;;;;;;;12.13;8.32;;;;;;;12.46;49.73;100254.03;5052870;28;20064;-80
2023/01/29 00:13:35;;;;;;;12.00;8.48;;;;;;;12.51;49.62;100261.81;5053513;28;20469;-80
2023/01/29 00:16:01;;;;;;;13.02;8.35;;;;;;;12.53;49.51;100257.44;5026009;28;20037;-80
2023/01/29 00:18:27;;;;;;;11.88;8.05;;;;;;;12.51;49.47;100249.63;5033573;28;20025;-80
2023/01/29 00:20:53;;;;;;;12.15;8.35;;;;;;;12.50;49.63;100247.88;5053254;28;20112;-80
2023/01/29 00:23:18;;;;;;;10.77;7.85;;;;;;;12.51;49.46;100249.63;5035693;28;20056;-81
2023/01/29 00:25:44;;;;;;;11.10;7.57;;;;;;;12.51;49.47;100254.84;5045711;28;20389;-80
2023/01/29 00:28:11;;;;;;;11.82;8.82;;;;;;;12.48;49.64;100247.91;5033301;28;20156;-81
2023/01/29 00:30:37;;;;;;;11.02;7.97;;;;;;;12.52;49.49;100245.22;5033648;28;20356;-80
2023/01/29 00:33:03;;;;;;;12.00;8.07;;;;;;;12.51;49.41;100244.38;5037146;28;20021;-80
2023/01/29 00:35:30;;;;;;;10.57;7.28;;;;;;;12.51;49.50;100243.50;5048310;28;20037;-80
2023/01/29 00:37:55;;;;;;;12.13;8.00;;;;;;;12.48;49.48;100242.66;5033077;28;20025;-81
2023/01/29 00:40:21;;;;;;;10.80;7.72;;;;;;;12.48;49.54;100233.94;5032719;28;20036;-80
2023/01/29 00:45:32;;;;;;;10.80;7.93;;;;;;;12.50;49.55;100240.03;5039121;28;20078;-81
2023/01/29 00:47:57;;;;;;;10.77;7.70;;;;;;;12.50;49.62;100237.41;5053506;28;20461;-80
2023/01/29 00:50:22;;;;;;;12.27;7.93;;;;;;;12.48;49.55;100239.16;5053469;28;20079;-81
2023/01/29 00:52:50;;;;;;;9.13;6.65;;;;;;;12.48;49.51;100236.56;5053457;28;20029;-81
2023/01/29 00:55:16;;;;;;;11.35;7.35;;;;;;;12.50;49.40;100237.41;5053490;28;20393;-80
2023/01/29 00:57:41;;;;;;;9.57;6.68;;;;;;;12.51;49.38;100228.69;5046770;28;20028;-80
2023/01/29 01:00:11;;;;;;;10.50;7.35;;;;;;;12.47;49.49;100232.22;5048525;28;20030;-81
2023/01/29 01:05:21;;;;;;;10.20;7.35;;;;;;;12.49;49.69;100230.44;5036818;28;20078;-80
2023/01/29 01:07:49;;;;;;;10.15;6.88;;;;;;;12.48;49.63;100231.31;5053015;28;20081;-80
2023/01/29 01:10:20;;;;;;;9.55;7.13;;;;;;;12.48;49.58;100239.16;5052495;28;20029;-81
2023/01/29 01:12:57;;;;;;;9.70;7.03;;;;;;;12.46;49.59;100225.25;5052909;28;20033;-80
2023/01/29 01:15:24;;;;;;;;;;;;;;;12.50;49.40;100232.19;5053556;28;20021;-80
2023/01/29 01:17:58;;;;;;;10.38;7.00;;;;;;;12.47;49.68;100227.84;5052799;28;19913;-80
2023/01/29 01:20:25;;;;;;;10.13;6.90;;;;;;;12.46;49.60;100230.47;5035020;28;20032;-81
2023/01/29 01:22:52;;;;;;;8.90;6.25;;;;;;;12.43;49.73;100225.28;5034674;28;20500;-81
2023/01/29 01:25:18;;;;;;;9.00;6.10;;;;;;;12.40;49.85;100220.09;5052995;28;20103;-80
2023/01/29 01:27:43;;;;;;;10.93;6.65;;;;;;;12.43;49.56;100230.50;5054704;28;20032;-80
2023/01/29 01:30:13;;;;;;;10.40;6.35;;;;;;;12.43;49.71;100233.13;5038919;28;20025;-81
2023/01/29 01:32:39;;;;;;;8.80;6.25;;;;;;;12.46;49.56;100226.09;5056698;28;20021;-80
2023/01/29 01:35:06;;;;;;;9.32;6.18;;;;;;;12.46;49.51;100226.09;5056677;28;20071;-81
2023/01/29 01:37:31;;;;;;;9.30;6.25;;;;;;;12.45;49.47;100228.75;5056398;28;20024;-80
2023/01/29 01:39:57;;;;;;;8.25;5.85;;;;;;;12.46;49.44;100225.25;5056706;28;20029;-80
2023/01/29 01:42:29;;;;;;;8.60;6.13;;;;;;;12.45;49.25;100234.84;5056489;28;20036;-80
2023/01/29 01:45:06;;;;;;;8.38;5.82;;;;;;;12.44;49.77;100227.00;5056643;28;20032;-80
2023/01/29 01:47:42;;;;;;;8.68;5.68;;;;;;;12.46;49.61;100240.94;5036570;28;20036;-80
2023/01/29 01:50:33;;;;;;;9.52;6.45;;;;;;;12.47;49.52;100240.06;5036606;28;20057;-81
2023/01/29 01:53:09;;;;;;;8.80;6.15;;;;;;;12.46;49.50;100235.72;5035117;28;20033;-81
2023/01/29 01:55:39;;;;;;;8.13;5.15;;;;;;;12.45;49.57;100236.59;5022618;28;20017;-81
2023/01/29 01:58:36;;;;;;;8.50;6.07;;;;;;;12.43;49.63;100223.53;5038075;28;20033;-80
2023/01/29 02:01:05;;;;;;;9.40;5.57;;;;;;;12.45;49.36;100236.59;5048610;28;20068;-81
2023/01/29 02:09:35;;;;;;;8.80;5.63;;;;;;;12.45;49.65;100244.47;5056656;28;20394;-81
2023/01/29 02:12:10;;;;;;;7.57;5.32;;;;;;;12.45;49.59;100234.00;5056239;28;20025;-81
2023/01/29 02:14:38;;;;;;;8.30;5.20;;;;;;;12.45;49.55;100236.59;5056630;28;20028;-81
2023/01/29 02:17:09;;;;;;;7.55;5.22;;;;;;;12.44;49.72;100232.22;5055999;28;20036;-80
2023/01/29 02:19:41;;;;;;;7.75;5.70;;;;;;;12.42;49.62;100228.78;5056474;28;20432;-80
2023/01/29 02:22:31;;;;;;;7.88;4.88;;;;;;;12.41;49.65;100237.53;5056093;28;20029;-81
2023/01/29 02:25:35;;;;;;;8.13;5.15;;;;;;;12.43;49.58;100236.63;5056088;28;20032;-81
2023/01/29 02:28:29;;;;;;;7.32;5.13;;;;;;;12.41;49.73;100237.53;4936402;29;20036;-80
2023/01/29 02:31:04;;;;;;;8.50;5.57;;;;;;;12.43;49.68;100230.50;4935766;29;20059;-81
2023/01/29 02:33:35;;;;;;;8.20;5.43;;;;;;;12.42;49.77;100241.88;4935549;28;20070;-81
2023/01/29 02:36:03;;;;;;;7.50;4.95;;;;;;;12.43;49.46;100236.63;4974380;28;20038;-80
2023/01/29 02:38:39;;;;;;;8.27;5.20;;;;;;;12.42;49.62;100244.50;4974951;28;20039;-80
2023/01/29 02:41:13;;;;;;;7.43;4.85;;;;;;;12.38;49.58;100242.78;4974717;28;20023;-80
2023/01/29 02:43:51;;;;;;;6.80;4.70;;;;;;;12.41;49.74;100243.63;4974861;28;20066;-81
2023/01/29 02:46:44;;;;;;;7.82;5.13;;;;;;;12.41;49.45;100242.75;4958694;28;20039;-81
2023/01/29 02:49:21;;;;;;;7.90;4.90;;;;;;;12.41;49.46;100248.00;4974714;28;20038;-81
2023/01/29 02:52:18;;;;;;;7.68;5.10;;;;;;;12.40;49.75;100248.88;4974128;28;20070;-81
2023/01/29 02:54:51;;;;;;;7.35;4.70;;;;;;;12.40;49.57;100251.50;4974189;28;20035;-80
2023/01/29 02:57:30;;;;;;;7.32;4.80;;;;;;;12.41;49.61;100253.22;4957207;28;20120;-81
2023/01/29 03:00:05;;;;;;;7.30;4.80;;;;;;;12.40;49.61;100251.50;4954824;29;20031;-80
2023/01/29 03:02:42;;;;;;;5.88;4.00;;;;;;;12.41;49.57;100251.50;4954715;29;20085;-80
2023/01/29 03:05:14;;;;;;;7.50;4.88;;;;;;;12.40;49.64;100257.59;5003410;28;20116;-80
2023/01/29 03:07:50;;;;;;;7.25;5.03;;;;;;;12.32;49.67;100252.47;5035086;28;20025;-79
2023/01/29 03:10:36;;;;;;;7.07;4.60;;;;;;;12.41;49.46;100258.47;5035131;28;20021;-80
2023/01/29 03:13:26;;;;;;;7.67;4.80;;;;;;;12.40;49.58;100251.50;5035046;28;20033;-81
2023/01/29 03:16:01;;;;;;;7.22;4.53;;;;;;;12.41;49.49;100268.94;5039436;28;20055;-80
2023/01/29 03:18:35;;;;;;;6.47;4.28;;;;;;;12.38;49.58;100261.09;5054669;28;20029;-80
2023/01/29 03:21:49;;;;;;;6.88;4.40;;;;;;;12.42;49.52;100265.44;5054687;28;20029;-81
2023/01/29 03:32:16;;;;;;;5.90;4.10;;;;;;;12.40;49.35;100275.91;5054614;28;20075;-80
2023/01/29 03:34:51;;;;;;;6.43;3.95;;;;;;;12.39;49.50;100270.72;5053928;28;20078;-80
2023/01/29 03:37:28;;;;;;;6.30;4.25;;;;;;;12.38;49.62;100271.56;5054216;28;20478;-80
2023/01/29 03:39:54;;;;;;;6.65;4.05;;;;;;;12.38;49.31;100269.84;5036649;28;20545;-80
2023/01/29 03:42:35;;;;;;;6.55;3.97;;;;;;;12.39;49.55;100283.81;5054196;28;20499;-80
2023/01/29 03:45:10;;;;;;;5.47;3.90;;;;;;;12.42;49.37;100281.13;5054228;28;20033;-81
2023/01/29 03:48:03;;;;;;;5.72;3.72;;;;;;;12.38;49.65;100271.56;5034323;28;20091;-80
2023/01/29 03:50:51;;;;;;;5.85;3.85;;;;;;;12.38;49.51;100274.19;5033904;28;20047;-80
2023/01/29 03:53:44;;;;;;;6.32;3.78;;;;;;;12.38;49.51;100277.69;5033984;28;20029;-80
2023/01/29 03:56:28;;;;;;;5.72;4.03;;;;;;;12.38;49.56;100284.66;5041795;28;20025;-80
2023/01/29 03:59:09;;;;;;;5.75;3.60;;;;;;;12.38;49.43;100284.66;5053009;28;20056;-81
2023/01/29 04:01:52;;;;;;;5.90;3.40;;;;;;;12.34;49.70;100279.47;5053858;28;20231;-80
2023/01/29 04:04:28;;;;;;;5.47;3.88;;;;;;;12.35;49.46;100281.22;5053874;28;20473;-81
2023/01/29 04:07:01;;;;;;;5.82;3.72;;;;;;;12.35;49.65;100282.97;5053877;28;20021;-79
2023/01/29 04:10:08;;;;;;;5.57;3.45;;;;;;;12.34;49.61;100284.72;5054216;28;20102;-80
2023/01/29 04:12:42;;;;;;;5.43;3.63;;;;;;;12.36;49.83;100287.31;5023260;28;20041;-81
2023/01/29 04:15:13;;;;;;;5.85;3.78;;;;;;;12.33;49.66;100290.84;5035756;28;20032;-81
2023/01/29 04:17:43;;;;;;;5.05;3.45;;;;;;;12.35;49.72;100291.69;5053630;28;20082;-81
2023/01/29 04:20:09;;;;;;;6.68;4.03;;;;;;;12.38;49.46;100301.25;5035790;28;20119;-81
2023/01/29 04:22:38;;;;;;;5.70;3.63;;;;;;;12.35;49.42;100306.53;5053800;28;20064;-81
2023/01/29 04:25:08;;;;;;;5.15;3.20;;;;;;;12.37;49.48;100301.25;5053837;28;20480;-80
2023/01/29 04:28:03;;;;;;;5.90;3.40;;;;;;;12.36;49.56;100297.78;5053762;28;20029;-80
2023/01/29 04:30:59;;;;;;;4.22;2.90;;;;;;;12.35;49.53;100290.84;5040575;28;20061;-81
2023/01/29 04:33:30;;;;;;;5.20;3.50;;;;;;;12.34;49.67;100310.00;5054052;28;20107;-80
2023/01/29 04:36:08;;;;;;;5.75;3.47;;;;;;;12.37;49.64;100303.88;5053843;28;20113;-81
2023/01/29 04:38:40;;;;;;;5.60;3.42;;;;;;;12.37;49.41;100303.88;5043805;28;20034;-81
2023/01/29 04:41:23;;;;;;;5.38;3.17;;;;;;;12.33;49.68;100298.69;5034165;28;20033;-81
2023/01/29 04:43:54;;;;;;;5.28;3.17;;;;;;;12.34;49.54;100305.66;5016429;28;20486;-81
2023/01/29 04:46:35;;;;;;;5.95;3.22;;;;;;;12.35;49.46;100306.53;5033831;28;20049;-81
2023/01/29 04:49:06;;;;;;;5.32;3.35;;;;;;;12.34;49.49;100305.66;5033649;28;20025;-81
2023/01/29 04:51:58;;;;;;;4.70;3.15;;;;;;;12.33;49.50;100309.16;5041631;28;20505;-81
2023/01/29 04:54:26;;;;;;;5.30;3.22;;;;;;;12.34;49.58;100305.66;5053660;28;20032;-81
2023/01/29 04:56:51;;;;;;;4.40;2.70;;;;;;;12.33;49.52;100303.94;5053163;28;20025;-80
2023/01/29 04:59:27;;;;;;;5.07;2.70;;;;;;;12.33;49.57;100308.28;5053562;28;20436;-81
2023/01/29 05:01:52;;;;;;;5.20;3.08;;;;;;;12.34;49.47;100308.28;5040174;28;20021;-81
2023/01/29 05:04:20;;;;;;;5.90;3.22;;;;;;;12.33;49.57;100303.94;5038256;28;20084;-80
2023/01/29 05:06:47;;;;;;;4.85;3.00;;;;;;;12.31;49.52;100303.06;5037974;28;20017;-81
2023/01/29 05:09:15;;;;;;;5.18;3.05;;;;;;;12.32;49.36;100307.44;5053276;28;20083;-80
2023/01/29 05:11:42;;;;;;;4.68;2.78;;;;;;;12.31;49.68;100316.16;5057456;28;20032;-81
2023/01/29 05:14:10;;;;;;;4.35;2.78;;;;;;;12.32;49.60;100317.91;5039417;28;20021;-81
2023/01/29 05:16:46;;;;;;;4.35;2.67;;;;;;;12.33;49.58;100309.16;5056655;28;20503;-81
2023/01/29 05:19:14;;;;;;;3.80;2.40;;;;;;;12.34;49.73;100315.25;5056440;28;20025;-80
2023/01/29 05:21:43;;;;;;;4.53;2.92;;;;;;;12.34;49.66;100315.25;5056625;28;20397;-80
2023/01/29 05:24:15;;;;;;;4.57;2.70;;;;;;;12.32;49.46;100312.66;5056291;28;20528;-80
2023/01/29 05:29:27;;;;;;;4.55;2.50;;;;;;;12.30;49.86;100324.88;5056030;28;20075;-80
2023/01/29 05:31:52;;;;;;;4.85;2.67;;;;;;;12.31;49.47;100331.84;5056491;28;20477;-80
2023/01/29 05:34:18;;;;;;;4.28;2.65;;;;;;;12.32;49.59;100333.59;5057973;28;20025;-81
2023/01/29 05:36:43;;;;;;;5.03;3.13;;;;;;;12.30;49.56;100339.75;5056506;28;20021;-80
2023/01/29 05:39:09;;;;;;;4.75;2.92;;;;;;;12.31;49.48;100331.84;5056472;28;20075;-80
2023/01/29 05:41:34;;;;;;;4.78;2.63;;;;;;;12.31;49.48;100331.84;5046432;28;20099;-80
2023/01/29 05:43:59;;;;;;;5.47;2.90;;;;;;;12.31;49.48;100347.56;5051637;28;20026;-80
2023/01/29 05:46:25;;;;;;;4.47;2.58;;;;;;;12.28;49.51;100339.75;5036676;28;20026;-80
2023/01/29 05:48:53;;;;;;;4.63;2.70;;;;;;;12.30;49.69;100356.28;5051602;28;20025;-80
2023/01/29 05:51:19;;;;;;;4.30;2.60;;;;;;;12.31;49.56;100352.78;5043802;28;20025;-80
2023/01/29 05:53:44;;;;;;;4.05;2.58;;;;;;;12.30;49.38;100364.16;5056015;28;20032;-79
2023/01/29 05:56:10;;;;;;;4.00;2.55;;;;;;;12.27;49.64;100356.34;5056252;28;20044;-80
2023/01/29 05:58:36;;;;;;;3.55;2.22;;;;;;;12.31;49.65;100363.25;5055664;28;20025;-80
2023/01/29 06:01:17;;;;;;;4.05;2.58;;;;;;;12.31;49.62;100352.78;5056107;28;20163;-80
2023/01/29 06:03:44;;;;;;;4.72;2.97;;;;;;;12.30;49.42;100353.69;5054853;28;20029;-80
2023/01/29 06:06:10;;;;;;;4.30;2.50;;;;;;;12.28;49.59;100358.06;5056168;28;20025;-81
2023/01/29 06:08:35;;;;;;;3.65;2.30;;;;;;;12.31;49.61;100360.63;5054807;28;20063;-81
2023/01/29 06:11:01;;;;;;;3.55;2.17;;;;;;;12.29;49.62;100348.44;5055624;28;20493;-80
2023/01/29 06:13:27;;;;;;;4.32;2.33;;;;;;;12.30;49.63;100363.28;5054982;28;20021;-80
2023/01/29 06:15:52;;;;;;;4.50;2.40;;;;;;;12.31;49.68;100358.03;5055652;28;20033;-80
2023/01/29 06:18:18;;;;;;;4.25;2.72;;;;;;;12.31;49.63;100358.03;5055506;28;20023;-80
2023/01/29 06:20:43;;;;;;;4.15;2.42;;;;;;;12.30;49.49;100356.28;5055530;28;20017;-80
2023/01/29 06:23:09;;;;;;;5.53;2.70;;;;;;;12.29;49.64;100359.78;5055608;28;20021;-80
2023/01/29 06:25:34;;;;;;;4.32;2.53;;;;;;;12.30;49.60;100358.91;5055596;28;20025;-80
2023/01/29 06:28:00;;;;;;;4.60;2.55;;;;;;;12.31;49.57;100362.41;5055081;28;20041;-81
2023/01/29 06:30:27;;;;;;;3.55;2.10;;;;;;;12.28;49.71;100358.06;5056035;28;20060;-80
2023/01/29 06:33:00;;;;;;;3.75;2.40;;;;;;;12.28;49.65;100363.31;5035712;28;20025;-80
2023/01/29 06:35:26;;;;;;;4.57;2.65;;;;;;;12.29;49.59;100359.78;5035571;28;20032;-80
2023/01/29 06:37:52;;;;;;;4.22;2.50;;;;;;;12.26;49.64;100359.84;5017392;28;20029;-80
2023/01/29 06:40:18;;;;;;;4.60;2.75;;;;;;;12.30;49.60;100363.28;5035198;28;20036;-80
2023/01/29 06:42:43;;;;;;;4.00;2.60;;;;;;;12.28;49.69;100368.53;5053441;28;20108;-81
2023/01/29 06:45:09;;;;;;;3.95;2.42;;;;;;;12.28;49.56;100359.81;5055302;28;20026;-80
2023/01/29 06:47:35;;;;;;;3.50;2.15;;;;;;;12.27;49.56;100366.81;5056160;28;20025;-81
2023/01/29 06:50:00;;;;;;;4.32;2.78;;;;;;;12.27;49.64;100372.03;5038408;28;20560;-80
2023/01/29 06:52:27;;;;;;;3.47;2.00;;;;;;;12.29;49.62;100380.72;5038981;28;20037;-81
2023/01/29 06:54:54;;;;;;;4.57;2.58;;;;;;;12.25;49.67;100371.16;5055936;28;20074;-80
2023/01/29 06:57:19;;;;;;;3.38;2.25;;;;;;;12.28;49.52;100372.88;5051771;28;20033;-80
2023/01/29 06:59:45;;;;;;;4.00;2.10;;;;;;;12.28;49.62;100372.88;5054932;28;20078;-80
2023/01/29 07:02:12;;;;;;;3.45;2.08;;;;;;;12.30;49.61;100376.38;5054829;28;20036;-80
2023/01/29 07:04:38;;;;;;;3.67;1.92;;;;;;;12.26;49.56;100380.78;5036992;28;20022;-80
2023/01/29 07:07:04;;;;;;;3.10;2.00;;;;;;;12.26;49.48;100380.78;5055049;28;20039;-80
2023/01/29 07:09:29;;;;;;;4.55;2.67;;;;;;;12.26;49.56;100375.53;5054789;28;20100;-80
2023/01/29 07:11:55;;;;;;;4.13;2.10;;;;;;;12.25;49.52;100389.50;5042895;28;20033;-80
2023/01/29 07:14:20;;;;;;;3.53;2.20;;;;;;;12.28;49.61;100388.59;5034871;28;20481;-80
2023/01/29 07:16:46;;;;;;;3.42;2.38;;;;;;;12.25;49.64;100394.72;5034554;28;20543;-80
2023/01/29 07:19:11;;;;;;;4.00;2.40;;;;;;;12.28;49.52;100405.19;5040638;28;20024;-80
2023/01/29 07:21:37;;;;;;;4.30;2.60;;;;;;;12.27;49.65;100413.03;5054294;28;20488;-80
2023/01/29 07:24:02;;;;;;;4.05;2.45;;;;;;;12.24;49.67;100413.94;5054466;28;20024;-80
2023/01/29 07:26:28;;;;;;;4.13;2.33;;;;;;;12.26;49.67;100414.81;5052865;28;20029;-80
2023/01/29 07:28:53;;;;;;;3.95;2.30;;;;;;;12.27;49.33;100415.66;5053817;28;20051;-80
2023/01/29 07:31:19;;;;;;;4.43;2.58;;;;;;;12.24;49.63;100413.06;5029889;28;20034;-80
2023/01/29 07:33:45;;;;;;;3.67;2.20;;;;;;;12.25;49.58;100426.13;5016430;28;20030;-80
2023/01/29 07:36:12;;;;;;;3.78;2.20;;;;;;;12.24;49.51;100419.16;5034153;28;20497;-80
2023/01/29 07:38:37;;;;;;;4.13;2.30;;;;;;;12.25;49.65;100428.75;5034189;28;20029;-81
2023/01/29 07:41:02;;;;;;;4.22;2.33;;;;;;;12.24;49.81;100440.09;5037610;28;20056;-81
2023/01/29 07:43:29;;;;;;;3.95;2.00;;;;;;;12.24;49.55;100445.34;5054147;28;20108;-80
2023/01/29 07:45:54;;;;;;;3.97;2.20;;;;;;;12.23;49.54;100433.13;5053972;28;20099;-80
2023/01/29 07:48:20;;;;;;;3.25;1.90;;;;;;;12.25;49.68;100447.06;5035992;28;20064;-79
2023/01/29 07:50:53;;;;;;;3.53;2.17;;;;;;;12.22;49.63;100442.72;5034641;28;20021;-79
2023/01/29 07:53:19;;;;;;;3.97;2.40;;;;;;;12.25;49.57;100440.97;5049381;28;20026;-80
2023/01/29 07:55:44;;;;;;;3.67;2.30;;;;;;;12.26;49.50;100448.81;5048919;28;20440;-80
2023/01/29 07:58:10;;;;;;;4.30;2.38;;;;;;;12.24;49.62;100455.81;5034128;28;20068;-80
2023/01/29 08:00:36;;;;;;;3.97;2.22;;;;;;;12.25;49.75;100459.31;5034833;28;20424;-81
2023/01/29 08:03:08;;;;;;;2.75;1.92;;;;;;;12.23;49.53;100454.06;5053144;28;20029;-79
2023/01/29 08:05:34;;;;;;;3.65;2.25;;;;;;;12.26;49.61;100467.16;5054473;28;20063;-80
2023/01/29 08:07:59;;;;;;;3.35;2.03;;;;;;;12.25;49.57;100457.53;5036657;28;20428;-80
2023/01/29 08:10:25;;;;;;;3.33;2.00;;;;;;;12.24;49.53;100466.28;5036572;28;20079;-81
2023/01/29 08:12:56;;;;;;;3.55;2.10;;;;;;;12.26;49.63;100475.00;5054498;28;20033;-81
2023/01/29 08:15:23;;;;;;;3.35;1.90;;;;;;;12.23;49.46;100477.63;5037791;28;20053;-81
2023/01/29 08:17:49;;;;;;;4.75;2.50;;;;;;;12.25;49.65;100477.63;5054718;28;20029;-81
2023/01/29 08:20:15;;;;;;;3.67;2.20;;;;;;;12.21;49.68;100461.94;5054372;28;20358;-81
2023/01/29 08:22:40;;;;;;;3.75;2.05;;;;;;;12.22;49.54;100468.03;5054204;28;20032;-81
2023/01/29 08:25:06;;;;;;;3.83;2.10;;;;;;;12.23;49.60;100469.78;5035662;28;20083;-81
2023/01/29 08:27:32;;;;;;;3.88;2.20;;;;;;;12.22;49.82;100465.44;5054549;28;20366;-80
2023/01/29 08:30:00;;;;;;;3.88;2.17;;;;;;;12.24;49.63;100475.88;5054004;28;20133;-81
2023/01/29 08:32:26;;;;;;;4.50;2.60;;;;;;;12.25;49.66;100478.47;5054761;28;20036;-82
2023/01/29 08:34:51;;;;;;;3.22;1.95;;;;;;;12.24;49.66;100474.13;5054541;28;20420;-79
2023/01/29 08:37:17;;;;;;;3.58;2.17;;;;;;;12.22;49.61;100468.88;5052619;28;20051;-80
2023/01/29 08:39:42;;;;;;;2.55;1.60;;;;;;;12.24;49.69;100471.50;5052785;28;20096;-80
2023/01/29 08:42:08;;;;;;;3.17;2.13;;;;;;;12.22;49.63;100473.28;5041100;28;20021;-81
2023/01/29 08:44:33;;;;;;;3.20;1.92;;;;;;;12.22;49.59;100475.91;5033145;28;20025;-80
2023/01/29 08:46:58;;;;;;;3.30;1.95;;;;;;;12.26;49.51;100489.81;5032977;28;20053;-81
2023/01/29 08:49:24;;;;;;;4.75;2.60;;;;;;;12.21;49.76;100487.25;5032732;28;20029;-80
2023/01/29 08:51:50;;;;;;;3.45;2.00;;;;;;;12.21;49.74;100492.47;5048499;28;20041;-80
2023/01/29 08:54:16;;;;;;;3.55;2.20;;;;;;;12.22;49.75;100494.22;5032611;28;20051;-80
2023/01/29 08:56:42;;;;;;;3.20;2.05;;;;;;;12.20;49.65;100488.97;5032931;28;20083;-80
2023/01/29 08:59:09;;;;;;;3.10;1.77;;;;;;;12.20;49.76;100485.47;5037827;28;20075;-80
2023/01/29 09:01:34;;;;;;;3.83;2.10;;;;;;;12.22;49.56;100488.97;5024397;28;20036;-79
2023/01/29 09:04:00;;;;;;;3.30;1.80;;;;;;;12.23;49.67;100493.31;5015084;28;20033;-80
2023/01/29 09:06:25;;;;;;;2.72;1.80;;;;;;;12.25;49.74;100493.31;5032675;28;20021;-79
2023/01/29 09:08:51;;;;;;;3.47;2.20;;;;;;;12.22;49.64;100483.75;5032174;28;20092;-79
2023/01/29 09:11:16;;;;;;;3.38;1.73;;;;;;;12.23;49.48;100490.72;5036738;28;20473;-79
2023/01/29 09:13:42;;;;;;;3.78;2.28;;;;;;;12.25;49.46;100498.56;5052477;28;20029;-79
2023/01/29 09:16:08;;;;;;;2.70;1.90;;;;;;;12.24;49.51;100500.28;5034538;28;20028;-80
2023/01/29 09:18:34;;;;;;;3.63;2.15;;;;;;;12.23;49.69;100501.19;5034665;28;20033;-80
2023/01/29 09:21:01;;;;;;;2.60;1.60;;;;;;;12.25;49.69;100502.03;5034382;28;20028;-80
2023/01/29 09:23:27;;;;;;;3.42;1.83;;;;;;;12.25;49.44;100499.41;5052495;28;20523;-80
2023/01/29 09:25:53;;;;;;;4.15;2.33;;;;;;;12.26;49.61;100489.81;5034612;28;20033;-80
2023/01/29 09:28:18;;;;;;;3.90;2.17;;;;;;;12.24;49.66;100492.44;5052010;28;20087;-79
2023/01/29 09:30:44;;;;;;;3.70;1.95;;;;;;;12.22;49.62;100494.22;5052130;28;20033;-80
2023/01/29 09:33:10;;;;;;;3.78;2.20;;;;;;;12.26;49.66;100495.94;5032606;28;20037;-79
2023/01/29 09:35:35;;;;;;;3.42;1.92;;;;;;;12.23;49.61;100495.94;5030886;28;20022;-79
2023/01/29 09:38:01;;;;;;;2.78;1.88;;;;;;;12.25;49.46;100495.94;5032538;28;20029;-79
2023/01/29 09:40:37;;;;;;;3.05;1.90;;;;;;;12.25;49.63;100494.16;5032709;28;20026;-80
2023/01/29 09:43:09;;;;;;;3.50;1.98;;;;;;;12.26;49.58;100509.03;5050923;28;20029;-80
2023/01/29 09:45:35;;;;;;;3.88;1.92;;;;;;;12.25;49.71;100504.63;5052350;28;20028;-79
2023/01/29 09:48:04;;;;;;;3.33;1.83;;;;;;;12.26;49.60;100509.03;5052556;28;20029;-80
2023/01/29 09:50:33;;;;;;;3.75;2.13;;;;;;;12.27;49.59;100513.38;5055627;28;20025;-79
2023/01/29 09:53:09;;;;;;;3.75;2.28;;;;;;;12.28;49.50;100517.72;5020569;28;20030;-80
2023/01/29 09:56:11;;;;;;;3.60;2.03;;;;;;;12.26;49.58;100514.25;5035906;28;20067;-79
2023/01/29 09:58:42;;;;;;;3.03;1.80;;;;;;;12.24;49.54;100508.16;5023632;28;20048;-79
2023/01/29 10:01:30;;;;;;;3.42;2.03;;;;;;;12.28;49.37;100512.47;5053146;28;20485;-79
2023/01/29 10:04:17;;;;;;;4.20;1.80;;;;;;;12.27;49.57;100510.75;5035751;28;20029;-79
2023/01/29 10:07:24;;;;;;;4.45;2.08;;;;;;;12.29;49.53;100516.84;5035648;28;20381;-80
2023/01/29 10:10:15;;;;;;;2.90;1.80;;;;;;;12.29;49.46;100516.84;4975172;28;20466;-80
2023/01/29 10:13:05;;;;;;;3.47;2.00;;;;;;;12.29;49.48;100521.19;4989279;28;20062;-80
2023/01/29 10:15:56;;;;;;;3.63;1.98;;;;;;;12.29;49.57;100522.06;4994377;28;20031;-80
2023/01/29 10:18:51;;;;;;;3.40;2.00;;;;;;;12.28;49.52;100530.81;4993817;28;20034;-80
2023/01/29 10:21:31;;;;;;;3.25;1.95;;;;;;;12.28;49.58;100529.91;4993824;28;20529;-79
2023/01/29 10:24:13;;;;;;;3.63;2.10;;;;;;;12.28;49.61;100525.56;4994397;28;20085;-80
2023/01/29 10:26:40;;;;;;;3.47;2.00;;;;;;;12.28;49.49;100519.47;4994460;28;20038;-81
2023/01/29 10:29:06;;;;;;;4.20;2.08;;;;;;;12.30;49.38;100528.19;4994614;28;20423;-81
2023/01/29 10:31:38;;;;;;;3.13;2.00;;;;;;;12.30;49.37;100529.03;4991954;28;20030;-81
2023/01/29 10:34:09;;;;;;;3.83;2.25;;;;;;;12.31;49.56;100522.91;4993924;28;20091;-80
2023/01/29 10:36:37;;;;;;;4.03;2.08;;;;;;;12.31;49.61;100528.16;4994058;28;20049;-80
2023/01/29 10:39:03;;;;;;;4.03;2.15;;;;;;;12.30;49.52;100529.03;4993561;28;20022;-80
2023/01/29 10:41:51;;;;;;;3.53;1.98;;;;;;;12.31;49.46;100530.75;5047246;28;20405;-79
2023/01/29 10:44:24;;;;;;;3.78;2.08;;;;;;;12.31;49.46;100524.69;5037050;28;20489;-80
2023/01/29 10:47:08;;;;;;;2.92;1.90;;;;;;;12.33;49.54;100517.69;5055197;28;20024;-81
2023/01/29 10:49:45;;;;;;;4.78;2.22;;;;;;;12.33;49.43;100513.31;5034882;28;20048;-80
2023/01/29 10:52:43;;;;;;;3.95;2.15;;;;;;;12.33;49.50;100515.94;5052194;28;20032;-80
2023/01/29 10:55:27;;;;;;;3.75;2.10;;;;;;;12.32;49.54;100515.94;5000395;28;20037;-80
2023/01/29 10:58:24;;;;;;;3.80;2.28;;;;;;;12.34;49.46;100519.41;5037242;28;20076;-80
2023/01/29 11:00:50;;;;;;;4.10;2.17;;;;;;;12.33;49.47;100518.56;5053222;28;20074;-80
2023/01/29 11:03:29;;;;;;;3.92;2.22;;;;;;;12.34;49.52;100520.28;5022752;28;20029;-80
2023/01/29 11:06:26;;;;;;;3.78;2.17;;;;;;;12.37;49.49;100518.50;5049602;28;20162;-80
2023/01/29 11:09:12;;;;;;;;;;;;;;;12.35;49.51;100516.78;5037211;28;20036;-80
2023/01/29 11:11:49;;;;;;;3.78;2.10;;;;;;;12.34;49.48;100516.78;5041407;28;19913;-80
2023/01/29 11:14:46;;;;;;;2.75;1.80;;;;;;;12.33;49.60;100513.31;5034459;28;20164;-80
2023/01/29 11:17:23;;;;;;;3.20;2.05;;;;;;;12.37;49.61;100505.44;4954273;29;20043;-80
2023/01/29 11:19:50;;;;;;;3.67;2.10;;;;;;;12.37;49.56;100492.34;4968089;28;20036;-80
2023/01/29 11:22:19;;;;;;;3.33;2.15;;;;;;;12.36;49.53;100496.72;4975715;28;20039;-80
2023/01/29 11:24:45;;;;;;;3.67;2.10;;;;;;;12.39;49.49;100501.06;4975006;28;20093;-80
2023/01/29 11:27:22;;;;;;;3.33;1.90;;;;;;;12.38;49.52;100488.84;4958733;28;20174;-80
2023/01/29 11:29:49;;;;;;;3.30;2.00;;;;;;;12.34;49.42;100478.41;4975467;28;20051;-80
2023/01/29 11:32:20;;;;;;;3.58;1.90;;;;;;;12.39;49.61;100480.13;4959291;28;20443;-80
2023/01/29 11:34:55;;;;;;;3.00;2.00;;;;;;;12.40;49.47;100479.25;4973546;28;20214;-80
2023/01/29 11:37:21;;;;;;;2.93;1.90;;;;;;;12.39;49.48;100480.13;4973772;28;20518;-80
2023/01/29 11:39:46;;;;;;;3.40;2.00;;;;;;;12.39;49.56;100469.66;4960853;28;20267;-80
2023/01/29 11:42:20;;;;;;;3.38;1.98;;;;;;;12.38;49.47;100466.16;4954032;29;20528;-80
2023/01/29 11:44:45;;;;;;;4.05;2.00;;;;;;;12.42;49.75;100467.00;4954000;29;20107;-80
2023/01/29 11:47:18;;;;;;;3.30;2.00;;;;;;;12.40;49.57;100464.38;4953323;29;20081;-81
2023/01/29 11:49:45;;;;;;;3.47;2.05;;;;;;;12.40;49.54;100460.91;4953863;29;20031;-80
2023/01/29 11:52:14;;;;;;;4.88;2.00;;;;;;;12.42;49.54;100461.75;4969618;28;20039;-81
2023/01/29 11:54:48;;;;;;;3.53;2.10;;;;;;;12.40;49.62;100455.69;5009399;28;20076;-80
2023/01/29 11:57:28;;;;;;;3.40;2.03;;;;;;;12.42;49.41;100460.03;5035825;28;20051;-80
2023/01/29 11:59:58;;;;;;;3.47;2.05;;;;;;;12.39;49.36;100449.56;5053667;28;20029;-80
2023/01/29 12:02:30;;;;;;;3.38;1.88;;;;;;;12.44;49.37;100449.50;5053306;28;20017;-80
2023/01/29 12:05:17;;;;;;;3.63;2.20;;;;;;;12.42;49.55;100453.91;5053924;28;20031;-80
2023/01/29 12:07:47;;;;;;;3.80;1.98;;;;;;;12.42;49.45;100453.91;5053258;28;20043;-80